sensor_id;sensor_type;location;lat;lon;timestamp;temperature;humidity
67186;HTU21D;54116;53.518;49.398;2023-06-22T00:02:18;-5.84;118.99
67186;HTU21D;54116;53.518;49.398;2023-06-22T00:04:44;-5.83;118.99
67186;HTU21D;54116;53.518;49.398;2023-06-22T00:07:11;-5.85;118.99
67186;HTU21D;54116;53.518;49.398;2023-06-22T00:09:37;-5.87;118.99
67186;HTU21D;54116;53.518;49.398;2023-06-22T00:12:03;-5.86;118.99
67186;HTU21D;54116;53.518;49.398;2023-06-22T00:14:30;-5.84;118.99
67186;HTU21D;54116;53.518;49.398;2023-06-22T00:16:56;-5.90;118.99
67186;HTU21D;54116;53.518;49.398;2023-06-22T00:19:25;-5.85;118.99
67186;HTU21D;54116;53.518;49.398;2023-06-22T00:21:51;-5.88;118.99
67186;HTU21D;54116;53.518;49.398;2023-06-22T00:24:21;-5.84;118.99
67186;HTU21D;54116;53.518;49.398;2023-06-22T00:26:50;-5.86;118.99
67186;HTU21D;54116;53.518;49.398;2023-06-22T00:29:16;-5.84;118.99
67186;HTU21D;54116;53.518;49.398;2023-06-22T00:31:42;-5.82;118.99
67186;HTU21D;54116;53.518;49.398;2023-06-22T00:34:08;-5.76;118.99
67186;HTU21D;54116;53.518;49.398;2023-06-22T00:36:36;-5.78;118.99
67186;HTU21D;54116;53.518;49.398;2023-06-22T00:39:02;-5.82;118.99
67186;HTU21D;54116;53.518;49.398;2023-06-22T00:41:29;-5.76;118.99
67186;HTU21D;54116;53.518;49.398;2023-06-22T00:43:55;-5.75;118.99
67186;HTU21D;54116;53.518;49.398;2023-06-22T00:46:22;-5.75;118.99
67186;HTU21D;54116;53.518;49.398;2023-06-22T00:48:50;-5.76;118.99
67186;HTU21D;54116;53.518;49.398;2023-06-22T00:51:17;-5.74;118.99
67186;HTU21D;54116;53.518;49.398;2023-06-22T00:53:50;-5.74;118.99
67186;HTU21D;54116;53.518;49.398;2023-06-22T00:56:17;-5.72;118.99
67186;HTU21D;54116;53.518;49.398;2023-06-22T00:58:46;-5.60;118.99
67186;HTU21D;54116;53.518;49.398;2023-06-22T01:01:13;-5.60;118.99
67186;HTU21D;54116;53.518;49.398;2023-06-22T01:03:40;-5.64;118.99
67186;HTU21D;54116;53.518;49.398;2023-06-22T01:06:10;-5.64;118.99
67186;HTU21D;54116;53.518;49.398;2023-06-22T01:08:49;-5.59;118.99
67186;HTU21D;54116;53.518;49.398;2023-06-22T01:11:28;-5.57;118.99
67186;HTU21D;54116;53.518;49.398;2023-06-22T01:16:45;-5.52;118.99
67186;HTU21D;54116;53.518;49.398;2023-06-22T01:21:45;-5.46;118.99
67186;HTU21D;54116;53.518;49.398;2023-06-22T01:24:18;-5.41;118.99
67186;HTU21D;54116;53.518;49.398;2023-06-22T01:29:32;-5.35;118.99
67186;HTU21D;54116;53.518;49.398;2023-06-22T01:31:59;-5.30;118.99
67186;HTU21D;54116;53.518;49.398;2023-06-22T01:34:27;-5.27;118.99
67186;HTU21D;54116;53.518;49.398;2023-06-22T01:36:54;-5.25;118.99
67186;HTU21D;54116;53.518;49.398;2023-06-22T01:39:21;-5.19;118.99
67186;HTU21D;54116;53.518;49.398;2023-06-22T01:41:48;-5.13;118.99
67186;HTU21D;54116;53.518;49.398;2023-06-22T01:44:15;-5.03;118.99
67186;HTU21D;54116;53.518;49.398;2023-06-22T01:46:41;-5.02;118.99
67186;HTU21D;54116;53.518;49.398;2023-06-22T01:49:08;-4.93;118.99
67186;HTU21D;54116;53.518;49.398;2023-06-22T01:51:34;-4.81;118.99
67186;HTU21D;54116;53.518;49.398;2023-06-22T01:54:01;-4.71;118.99
67186;HTU21D;54116;53.518;49.398;2023-06-22T01:56:28;-4.73;118.99
67186;HTU21D;54116;53.518;49.398;2023-06-22T02:02:09;-4.75;118.99
67186;HTU21D;54116;53.518;49.398;2023-06-22T02:05:02;-4.71;118.99
67186;HTU21D;54116;53.518;49.398;2023-06-22T02:07:56;-4.73;118.99
67186;HTU21D;54116;53.518;49.398;2023-06-22T02:10:27;-4.73;118.99
67186;HTU21D;54116;53.518;49.398;2023-06-22T02:12:54;-4.71;118.99
67186;HTU21D;54116;53.518;49.398;2023-06-22T02:15:21;-4.75;118.99
67186;HTU21D;54116;53.518;49.398;2023-06-22T02:17:48;-4.68;118.99
67186;HTU21D;54116;53.518;49.398;2023-06-22T02:20:15;-4.68;118.99
67186;HTU21D;54116;53.518;49.398;2023-06-22T02:22:41;-4.67;118.99
67186;HTU21D;54116;53.518;49.398;2023-06-22T02:25:08;-4.59;118.99
67186;HTU21D;54116;53.518;49.398;2023-06-22T02:27:34;-4.57;118.99
67186;HTU21D;54116;53.518;49.398;2023-06-22T02:30:00;-4.46;118.99
67186;HTU21D;54116;53.518;49.398;2023-06-22T02:32:26;-4.49;118.99
67186;HTU21D;54116;53.518;49.398;2023-06-22T02:34:53;-4.42;118.99
67186;HTU21D;54116;53.518;49.398;2023-06-22T02:37:19;-4.34;118.99
67186;HTU21D;54116;53.518;49.398;2023-06-22T02:39:45;-4.32;118.99
67186;HTU21D;54116;53.518;49.398;2023-06-22T02:42:11;-4.26;118.99
67186;HTU21D;54116;53.518;49.398;2023-06-22T02:44:37;-4.19;118.99
67186;HTU21D;54116;53.518;49.398;2023-06-22T02:47:04;-4.23;118.99
67186;HTU21D;54116;53.518;49.398;2023-06-22T02:49:30;-4.15;118.99
67186;HTU21D;54116;53.518;49.398;2023-06-22T02:51:57;-4.14;118.99
67186;HTU21D;54116;53.518;49.398;2023-06-22T02:54:23;-3.98;118.99
67186;HTU21D;54116;53.518;49.398;2023-06-22T02:56:49;-3.85;118.99
67186;HTU21D;54116;53.518;49.398;2023-06-22T02:59:16;-3.91;118.99
67186;HTU21D;54116;53.518;49.398;2023-06-22T03:01:42;-3.79;118.99
67186;HTU21D;54116;53.518;49.398;2023-06-22T03:04:09;-3.75;118.99
67186;HTU21D;54116;53.518;49.398;2023-06-22T03:06:37;-3.66;118.99
67186;HTU21D;54116;53.518;49.398;2023-06-22T03:09:08;-3.40;118.99
67186;HTU21D;54116;53.518;49.398;2023-06-22T03:11:35;-3.30;118.99
67186;HTU21D;54116;53.518;49.398;2023-06-22T03:14:01;-3.39;118.99
67186;HTU21D;54116;53.518;49.398;2023-06-22T03:16:28;-3.66;118.99
67186;HTU21D;54116;53.518;49.398;2023-06-22T03:18:56;-3.64;118.99
67186;HTU21D;54116;53.518;49.398;2023-06-22T03:21:28;-3.58;118.99
67186;HTU21D;54116;53.518;49.398;2023-06-22T03:23:55;-3.56;118.99
67186;HTU21D;54116;53.518;49.398;2023-06-22T03:26:32;-3.62;118.99
67186;HTU21D;54116;53.518;49.398;2023-06-22T03:28:58;-3.40;118.99
67186;HTU21D;54116;53.518;49.398;2023-06-22T03:31:24;-3.25;118.99
67186;HTU21D;54116;53.518;49.398;2023-06-22T03:33:51;-3.19;118.99
67186;HTU21D;54116;53.518;49.398;2023-06-22T03:36:19;-3.37;118.99
67186;HTU21D;54116;53.518;49.398;2023-06-22T03:38:46;-3.38;118.99
67186;HTU21D;54116;53.518;49.398;2023-06-22T03:41:13;-3.33;118.99
67186;HTU21D;54116;53.518;49.398;2023-06-22T03:43:39;-3.43;118.99
67186;HTU21D;54116;53.518;49.398;2023-06-22T03:46:05;-3.39;118.99
67186;HTU21D;54116;53.518;49.398;2023-06-22T03:48:31;-3.26;118.99
67186;HTU21D;54116;53.518;49.398;2023-06-22T03:50:59;-3.19;118.99
67186;HTU21D;54116;53.518;49.398;2023-06-22T03:53:25;-2.97;118.99
67186;HTU21D;54116;53.518;49.398;2023-06-22T03:55:52;-2.50;118.99
67186;HTU21D;54116;53.518;49.398;2023-06-22T03:58:20;-2.15;118.99
67186;HTU21D;54116;53.518;49.398;2023-06-22T04:00:48;-2.05;118.99
67186;HTU21D;54116;53.518;49.398;2023-06-22T04:03:15;-1.89;118.99
67186;HTU21D;54116;53.518;49.398;2023-06-22T04:05:41;-1.70;118.99
67186;HTU21D;54116;53.518;49.398;2023-06-22T04:08:08;-1.33;118.99
67186;HTU21D;54116;53.518;49.398;2023-06-22T04:10:34;-1.00;118.99
67186;HTU21D;54116;53.518;49.398;2023-06-22T04:13:00;-1.14;118.99
67186;HTU21D;54116;53.518;49.398;2023-06-22T04:15:26;-1.27;118.99
67186;HTU21D;54116;53.518;49.398;2023-06-22T04:17:55;-1.27;118.99
67186;HTU21D;54116;53.518;49.398;2023-06-22T04:20:22;-1.45;118.99
67186;HTU21D;54116;53.518;49.398;2023-06-22T04:22:48;-1.77;118.99
67186;HTU21D;54116;53.518;49.398;2023-06-22T04:25:14;-1.52;118.99
67186;HTU21D;54116;53.518;49.398;2023-06-22T04:27:40;-1.79;118.99
67186;HTU21D;54116;53.518;49.398;2023-06-22T04:30:08;-2.15;118.99
67186;HTU21D;54116;53.518;49.398;2023-06-22T04:32:36;-2.14;118.99
67186;HTU21D;54116;53.518;49.398;2023-06-22T04:35:03;-2.02;118.99
67186;HTU21D;54116;53.518;49.398;2023-06-22T04:37:33;-1.77;118.99
67186;HTU21D;54116;53.518;49.398;2023-06-22T04:40:11;-1.75;118.99
67186;HTU21D;54116;53.518;49.398;2023-06-22T04:42:40;-1.86;118.99
67186;HTU21D;54116;53.518;49.398;2023-06-22T04:45:09;-2.08;118.99
67186;HTU21D;54116;53.518;49.398;2023-06-22T04:47:36;-1.91;118.99
67186;HTU21D;54116;53.518;49.398;2023-06-22T04:50:06;-1.85;118.99
67186;HTU21D;54116;53.518;49.398;2023-06-22T04:52:33;-1.62;118.99
67186;HTU21D;54116;53.518;49.398;2023-06-22T04:54:59;-1.20;118.99
67186;HTU21D;54116;53.518;49.398;2023-06-22T04:57:27;-1.24;118.99
67186;HTU21D;54116;53.518;49.398;2023-06-22T05:00:03;-1.72;118.99
67186;HTU21D;54116;53.518;49.398;2023-06-22T05:02:45;-1.86;118.99
67186;HTU21D;54116;53.518;49.398;2023-06-22T05:05:14;-1.70;118.99
67186;HTU21D;54116;53.518;49.398;2023-06-22T05:07:45;-1.68;118.99
67186;HTU21D;54116;53.518;49.398;2023-06-22T05:10:14;-1.70;118.99
67186;HTU21D;54116;53.518;49.398;2023-06-22T05:15:29;-1.77;118.99
67186;HTU21D;54116;53.518;49.398;2023-06-22T05:17:59;-2.00;118.99
67186;HTU21D;54116;53.518;49.398;2023-06-22T05:23:10;-1.60;118.99
67186;HTU21D;54116;53.518;49.398;2023-06-22T05:28:23;-1.40;118.99
67186;HTU21D;54116;53.518;49.398;2023-06-22T05:30:49;-1.57;118.99
67186;HTU21D;54116;53.518;49.398;2023-06-22T05:33:19;-1.13;118.99
67186;HTU21D;54116;53.518;49.398;2023-06-22T05:35:45;-1.28;118.99
67186;HTU21D;54116;53.518;49.398;2023-06-22T05:38:11;-1.19;118.99
67186;HTU21D;54116;53.518;49.398;2023-06-22T05:40:56;-1.12;118.99
67186;HTU21D;54116;53.518;49.398;2023-06-22T05:43:23;-0.70;118.99
67186;HTU21D;54116;53.518;49.398;2023-06-22T05:45:49;-0.55;118.99
67186;HTU21D;54116;53.518;49.398;2023-06-22T05:48:56;-1.65;118.99
67186;HTU21D;54116;53.518;49.398;2023-06-22T05:51:23;-1.94;118.99
67186;HTU21D;54116;53.518;49.398;2023-06-22T05:54:08;-1.73;118.99
67186;HTU21D;54116;53.518;49.398;2023-06-22T05:56:35;-1.38;118.99
67186;HTU21D;54116;53.518;49.398;2023-06-22T05:59:01;-0.87;118.99
67186;HTU21D;54116;53.518;49.398;2023-06-22T06:01:27;-0.55;118.99
67186;HTU21D;54116;53.518;49.398;2023-06-22T06:04:12;-0.72;118.99
67186;HTU21D;54116;53.518;49.398;2023-06-22T06:06:41;-1.03;118.99
67186;HTU21D;54116;53.518;49.398;2023-06-22T06:09:08;-1.26;118.99
67186;HTU21D;54116;53.518;49.398;2023-06-22T06:11:37;-1.38;118.99
67186;HTU21D;54116;53.518;49.398;2023-06-22T06:14:13;-1.39;118.99
67186;HTU21D;54116;53.518;49.398;2023-06-22T06:16:39;-1.44;118.99
67186;HTU21D;54116;53.518;49.398;2023-06-22T06:22:39;-0.81;118.99
67186;HTU21D;54116;53.518;49.398;2023-06-22T06:25:24;-0.52;118.99
67186;HTU21D;54116;53.518;49.398;2023-06-22T06:27:51;-0.31;118.99
67186;HTU21D;54116;53.518;49.398;2023-06-22T06:30:19;-0.73;118.99
67186;HTU21D;54116;53.518;49.398;2023-06-22T06:32:45;-0.84;118.99
67186;HTU21D;54116;53.518;49.398;2023-06-22T06:35:13;-0.35;118.99
67186;HTU21D;54116;53.518;49.398;2023-06-22T06:37:41;-0.09;118.99
67186;HTU21D;54116;53.518;49.398;2023-06-22T06:43:11;-0.79;118.99
67186;HTU21D;54116;53.518;49.398;2023-06-22T06:45:37;-1.65;118.99
67186;HTU21D;54116;53.518;49.398;2023-06-22T06:48:06;-1.82;118.99
67186;HTU21D;54116;53.518;49.398;2023-06-22T06:50:32;-2.10;118.99
67186;HTU21D;54116;53.518;49.398;2023-06-22T06:55:42;-2.32;118.99
67186;HTU21D;54116;53.518;49.398;2023-06-22T06:58:11;-2.13;118.99
67186;HTU21D;54116;53.518;49.398;2023-06-22T07:00:39;-1.97;118.99
67186;HTU21D;54116;53.518;49.398;2023-06-22T07:03:05;-1.78;118.99
67186;HTU21D;54116;53.518;49.398;2023-06-22T07:05:32;-1.73;118.99
67186;HTU21D;54116;53.518;49.398;2023-06-22T07:07:59;-1.86;118.99
67186;HTU21D;54116;53.518;49.398;2023-06-22T07:10:25;-2.21;118.99
67186;HTU21D;54116;53.518;49.398;2023-06-22T07:12:51;-2.64;118.99
67186;HTU21D;54116;53.518;49.398;2023-06-22T07:15:17;-2.83;118.99
67186;HTU21D;54116;53.518;49.398;2023-06-22T07:17:43;-2.96;118.99
67186;HTU21D;54116;53.518;49.398;2023-06-22T07:20:10;-3.02;118.99
67186;HTU21D;54116;53.518;49.398;2023-06-22T07:22:43;-3.19;118.99
67186;HTU21D;54116;53.518;49.398;2023-06-22T07:25:12;-3.35;118.99
67186;HTU21D;54116;53.518;49.398;2023-06-22T07:27:56;-3.23;118.99
67186;HTU21D;54116;53.518;49.398;2023-06-22T07:30:23;-3.12;118.99
67186;HTU21D;54116;53.518;49.398;2023-06-22T07:32:49;-2.87;118.99
67186;HTU21D;54116;53.518;49.398;2023-06-22T07:35:15;-2.69;118.99
67186;HTU21D;54116;53.518;49.398;2023-06-22T07:37:43;-2.61;118.99
67186;HTU21D;54116;53.518;49.398;2023-06-22T07:40:10;-2.47;118.99
67186;HTU21D;54116;53.518;49.398;2023-06-22T07:42:36;-2.32;118.99
67186;HTU21D;54116;53.518;49.398;2023-06-22T07:45:03;-2.24;118.99
67186;HTU21D;54116;53.518;49.398;2023-06-22T07:47:30;-2.42;118.99
67186;HTU21D;54116;53.518;49.398;2023-06-22T07:49:58;-2.31;118.99
67186;HTU21D;54116;53.518;49.398;2023-06-22T07:52:27;-2.14;118.99
67186;HTU21D;54116;53.518;49.398;2023-06-22T07:54:54;-2.07;118.99
67186;HTU21D;54116;53.518;49.398;2023-06-22T07:57:20;-2.08;118.99
67186;HTU21D;54116;53.518;49.398;2023-06-22T07:59:46;-2.07;118.99
67186;HTU21D;54116;53.518;49.398;2023-06-22T08:02:16;-2.01;118.99
67186;HTU21D;54116;53.518;49.398;2023-06-22T08:04:42;-1.76;118.99
67186;HTU21D;54116;53.518;49.398;2023-06-22T08:07:08;-1.71;118.99
67186;HTU21D;54116;53.518;49.398;2023-06-22T08:09:35;-1.60;118.99
67186;HTU21D;54116;53.518;49.398;2023-06-22T08:12:01;-1.54;118.99
67186;HTU21D;54116;53.518;49.398;2023-06-22T08:14:29;-1.00;118.99
67186;HTU21D;54116;53.518;49.398;2023-06-22T08:16:55;-0.90;118.99
67186;HTU21D;54116;53.518;49.398;2023-06-22T08:19:21;-1.03;118.99
67186;HTU21D;54116;53.518;49.398;2023-06-22T08:21:47;-1.28;118.99
67186;HTU21D;54116;53.518;49.398;2023-06-22T08:24:13;-1.32;118.99
67186;HTU21D;54116;53.518;49.398;2023-06-22T08:26:39;-1.08;118.99
67186;HTU21D;54116;53.518;49.398;2023-06-22T08:29:05;-1.23;118.99
67186;HTU21D;54116;53.518;49.398;2023-06-22T08:31:33;-1.21;118.99
67186;HTU21D;54116;53.518;49.398;2023-06-22T08:34:00;-1.19;118.99
67186;HTU21D;54116;53.518;49.398;2023-06-22T08:36:26;-1.26;118.99
67186;HTU21D;54116;53.518;49.398;2023-06-22T08:38:56;-1.35;118.99
67186;HTU21D;54116;53.518;49.398;2023-06-22T08:41:23;-1.25;118.99
67186;HTU21D;54116;53.518;49.398;2023-06-22T08:43:50;-1.28;118.99
67186;HTU21D;54116;53.518;49.398;2023-06-22T08:46:16;-1.32;118.99
67186;HTU21D;54116;53.518;49.398;2023-06-22T08:48:45;-1.28;118.99
67186;HTU21D;54116;53.518;49.398;2023-06-22T08:51:11;-1.28;118.99
67186;HTU21D;54116;53.518;49.398;2023-06-22T08:53:38;-1.27;118.99
67186;HTU21D;54116;53.518;49.398;2023-06-22T08:56:04;-1.48;118.99
67186;HTU21D;54116;53.518;49.398;2023-06-22T08:58:30;-1.65;118.99
67186;HTU21D;54116;53.518;49.398;2023-06-22T09:00:56;-1.72;118.99
67186;HTU21D;54116;53.518;49.398;2023-06-22T09:03:22;-1.97;118.99
67186;HTU21D;54116;53.518;49.398;2023-06-22T09:05:52;-1.45;118.99
67186;HTU21D;54116;53.518;49.398;2023-06-22T09:08:18;-1.15;118.99
67186;HTU21D;54116;53.518;49.398;2023-06-22T09:10:44;-0.82;118.99
67186;HTU21D;54116;53.518;49.398;2023-06-22T09:13:10;-0.90;118.99
67186;HTU21D;54116;53.518;49.398;2023-06-22T09:15:36;-1.24;118.99
67186;HTU21D;54116;53.518;49.398;2023-06-22T09:18:03;-1.39;118.99
67186;HTU21D;54116;53.518;49.398;2023-06-22T09:20:29;-1.56;118.99
67186;HTU21D;54116;53.518;49.398;2023-06-22T09:22:55;-1.60;118.99
67186;HTU21D;54116;53.518;49.398;2023-06-22T09:25:21;-1.44;118.99
67186;HTU21D;54116;53.518;49.398;2023-06-22T09:27:47;-1.40;118.99
67186;HTU21D;54116;53.518;49.398;2023-06-22T09:30:13;-1.13;118.99
67186;HTU21D;54116;53.518;49.398;2023-06-22T09:32:40;-0.88;118.99
67186;HTU21D;54116;53.518;49.398;2023-06-22T09:35:06;-0.73;118.99
67186;HTU21D;54116;53.518;49.398;2023-06-22T09:37:34;-0.74;118.99
67186;HTU21D;54116;53.518;49.398;2023-06-22T09:40:00;-0.77;118.99
67186;HTU21D;54116;53.518;49.398;2023-06-22T09:42:26;-0.85;118.99
67186;HTU21D;54116;53.518;49.398;2023-06-22T09:44:54;-1.01;118.99
67186;HTU21D;54116;53.518;49.398;2023-06-22T09:47:20;-1.16;118.99
67186;HTU21D;54116;53.518;49.398;2023-06-22T09:49:46;-0.86;118.99
67186;HTU21D;54116;53.518;49.398;2023-06-22T09:52:12;-0.89;118.99
67186;HTU21D;54116;53.518;49.398;2023-06-22T09:54:38;-0.98;118.99
67186;HTU21D;54116;53.518;49.398;2023-06-22T09:57:04;-0.61;118.99
67186;HTU21D;54116;53.518;49.398;2023-06-22T09:59:31;-0.28;118.99
67186;HTU21D;54116;53.518;49.398;2023-06-22T10:01:57;-0.56;118.99
67186;HTU21D;54116;53.518;49.398;2023-06-22T10:04:23;-0.68;118.99
67186;HTU21D;54116;53.518;49.398;2023-06-22T10:06:50;-0.61;118.99
67186;HTU21D;54116;53.518;49.398;2023-06-22T10:09:16;-0.71;118.99
67186;HTU21D;54116;53.518;49.398;2023-06-22T10:11:43;-1.10;118.99
67186;HTU21D;54116;53.518;49.398;2023-06-22T10:14:09;-0.94;118.99
67186;HTU21D;54116;53.518;49.398;2023-06-22T10:16:36;-0.81;118.99
67186;HTU21D;54116;53.518;49.398;2023-06-22T10:19:02;-1.01;118.99
67186;HTU21D;54116;53.518;49.398;2023-06-22T10:21:28;-0.82;118.99
67186;HTU21D;54116;53.518;49.398;2023-06-22T10:23:56;-0.70;118.99
67186;HTU21D;54116;53.518;49.398;2023-06-22T10:26:22;-0.79;118.99
67186;HTU21D;54116;53.518;49.398;2023-06-22T10:28:51;-0.67;118.99
67186;HTU21D;54116;53.518;49.398;2023-06-22T10:31:17;-0.69;118.99
67186;HTU21D;54116;53.518;49.398;2023-06-22T10:33:43;-0.73;118.99
67186;HTU21D;54116;53.518;49.398;2023-06-22T10:36:11;-0.86;118.99
67186;HTU21D;54116;53.518;49.398;2023-06-22T10:38:37;-1.14;118.99
67186;HTU21D;54116;53.518;49.398;2023-06-22T10:41:04;-1.34;118.99
67186;HTU21D;54116;53.518;49.398;2023-06-22T10:43:30;-1.16;118.99
67186;HTU21D;54116;53.518;49.398;2023-06-22T10:45:56;-1.24;118.99
67186;HTU21D;54116;53.518;49.398;2023-06-22T10:48:22;-1.31;118.99
67186;HTU21D;54116;53.518;49.398;2023-06-22T10:50:48;-1.33;118.99
67186;HTU21D;54116;53.518;49.398;2023-06-22T10:53:14;-1.27;118.99
67186;HTU21D;54116;53.518;49.398;2023-06-22T10:55:40;-0.94;118.99
67186;HTU21D;54116;53.518;49.398;2023-06-22T10:58:08;-0.86;118.99
67186;HTU21D;54116;53.518;49.398;2023-06-22T11:00:34;-0.47;118.99
67186;HTU21D;54116;53.518;49.398;2023-06-22T11:03:01;-0.15;118.99
67186;HTU21D;54116;53.518;49.398;2023-06-22T11:05:27;-0.47;118.99
67186;HTU21D;54116;53.518;49.398;2023-06-22T11:07:54;-0.77;118.99
67186;HTU21D;54116;53.518;49.398;2023-06-22T11:10:20;-0.82;118.99
67186;HTU21D;54116;53.518;49.398;2023-06-22T11:12:46;-0.69;118.99
67186;HTU21D;54116;53.518;49.398;2023-06-22T11:15:12;-0.94;118.99
67186;HTU21D;54116;53.518;49.398;2023-06-22T11:17:38;-1.15;118.99
67186;HTU21D;54116;53.518;49.398;2023-06-22T11:20:05;-1.23;118.99
67186;HTU21D;54116;53.518;49.398;2023-06-22T11:22:40;-1.12;118.99
67186;HTU21D;54116;53.518;49.398;2023-06-22T11:25:07;-0.75;118.99
67186;HTU21D;54116;53.518;49.398;2023-06-22T11:27:33;-0.68;118.99
67186;HTU21D;54116;53.518;49.398;2023-06-22T11:30:00;-0.53;118.99
67186;HTU21D;54116;53.518;49.398;2023-06-22T11:32:26;-0.55;118.99
67186;HTU21D;54116;53.518;49.398;2023-06-22T11:34:52;-0.75;118.99
67186;HTU21D;54116;53.518;49.398;2023-06-22T11:37:18;-0.89;118.99
67186;HTU21D;54116;53.518;49.398;2023-06-22T11:39:44;-0.70;118.99
67186;HTU21D;54116;53.518;49.398;2023-06-22T11:42:11;-0.47;118.99
67186;HTU21D;54116;53.518;49.398;2023-06-22T11:44:37;-0.17;118.99
67186;HTU21D;54116;53.518;49.398;2023-06-22T11:47:04;-0.06;118.99
67186;HTU21D;54116;53.518;49.398;2023-06-22T11:49:31;-0.31;118.99
67186;HTU21D;54116;53.518;49.398;2023-06-22T11:51:57;-0.25;118.99
67186;HTU21D;54116;53.518;49.398;2023-06-22T11:54:23;-0.13;118.99
67186;HTU21D;54116;53.518;49.398;2023-06-22T11:56:49;-0.02;118.99
67186;HTU21D;54116;53.518;49.398;2023-06-22T11:59:16;-0.06;118.99
67186;HTU21D;54116;53.518;49.398;2023-06-22T12:01:42;-0.25;118.99
67186;HTU21D;54116;53.518;49.398;2023-06-22T12:04:08;-0.52;118.99
67186;HTU21D;54116;53.518;49.398;2023-06-22T12:06:38;-0.91;118.99
67186;HTU21D;54116;53.518;49.398;2023-06-22T12:09:07;-0.89;118.99
67186;HTU21D;54116;53.518;49.398;2023-06-22T12:11:33;-1.12;118.99
67186;HTU21D;54116;53.518;49.398;2023-06-22T12:13:59;-1.36;118.99
67186;HTU21D;54116;53.518;49.398;2023-06-22T12:16:28;-1.46;118.99
67186;HTU21D;54116;53.518;49.398;2023-06-22T12:18:54;-1.40;118.99
67186;HTU21D;54116;53.518;49.398;2023-06-22T12:21:21;-1.40;118.99
67186;HTU21D;54116;53.518;49.398;2023-06-22T12:23:47;-1.49;118.99
67186;HTU21D;54116;53.518;49.398;2023-06-22T12:26:13;-1.34;118.99
67186;HTU21D;54116;53.518;49.398;2023-06-22T12:28:39;-1.12;118.99
67186;HTU21D;54116;53.518;49.398;2023-06-22T12:31:05;-1.02;118.99
67186;HTU21D;54116;53.518;49.398;2023-06-22T12:33:31;-0.90;118.99
67186;HTU21D;54116;53.518;49.398;2023-06-22T12:35:57;-0.76;118.99
67186;HTU21D;54116;53.518;49.398;2023-06-22T12:38:24;-0.42;118.99
67186;HTU21D;54116;53.518;49.398;2023-06-22T12:40:51;-0.17;118.99
67186;HTU21D;54116;53.518;49.398;2023-06-22T12:43:18;0.23;118.99
67186;HTU21D;54116;53.518;49.398;2023-06-22T12:45:44;0.38;118.99
67186;HTU21D;54116;53.518;49.398;2023-06-22T12:48:11;0.36;118.99
67186;HTU21D;54116;53.518;49.398;2023-06-22T12:50:38;0.07;118.99
67186;HTU21D;54116;53.518;49.398;2023-06-22T12:53:04;-0.03;118.99
67186;HTU21D;54116;53.518;49.398;2023-06-22T12:55:32;0.07;118.99
67186;HTU21D;54116;53.518;49.398;2023-06-22T12:57:58;0.17;118.99
67186;HTU21D;54116;53.518;49.398;2023-06-22T13:00:24;0.17;118.99
67186;HTU21D;54116;53.518;49.398;2023-06-22T13:02:50;0.12;118.99
67186;HTU21D;54116;53.518;49.398;2023-06-22T13:05:16;-0.13;118.99
67186;HTU21D;54116;53.518;49.398;2023-06-22T13:07:42;-0.17;118.99
67186;HTU21D;54116;53.518;49.398;2023-06-22T13:10:09;-0.07;118.99
67186;HTU21D;54116;53.518;49.398;2023-06-22T13:12:37;-0.60;118.99
67186;HTU21D;54116;53.518;49.398;2023-06-22T13:15:04;-0.91;118.99
67186;HTU21D;54116;53.518;49.398;2023-06-22T13:17:30;-1.12;118.99
67186;HTU21D;54116;53.518;49.398;2023-06-22T13:19:56;-1.19;118.99
67186;HTU21D;54116;53.518;49.398;2023-06-22T13:22:32;-1.15;118.99
67186;HTU21D;54116;53.518;49.398;2023-06-22T13:24:59;-1.08;118.99
67186;HTU21D;54116;53.518;49.398;2023-06-22T13:27:25;-0.87;118.99
67186;HTU21D;54116;53.518;49.398;2023-06-22T13:29:52;-1.03;118.99
67186;HTU21D;54116;53.518;49.398;2023-06-22T13:32:18;-1.34;118.99
67186;HTU21D;54116;53.518;49.398;2023-06-22T13:34:44;-1.39;118.99
67186;HTU21D;54116;53.518;49.398;2023-06-22T13:37:10;-1.43;118.99
67186;HTU21D;54116;53.518;49.398;2023-06-22T13:39:36;-1.56;118.99
67186;HTU21D;54116;53.518;49.398;2023-06-22T13:42:03;-1.48;118.99
67186;HTU21D;54116;53.518;49.398;2023-06-22T13:44:29;-1.41;118.99
67186;HTU21D;54116;53.518;49.398;2023-06-22T13:46:55;-1.49;118.99
67186;HTU21D;54116;53.518;49.398;2023-06-22T13:49:21;-1.26;118.99
67186;HTU21D;54116;53.518;49.398;2023-06-22T13:51:47;-1.35;118.99
67186;HTU21D;54116;53.518;49.398;2023-06-22T13:54:14;-1.13;118.99
67186;HTU21D;54116;53.518;49.398;2023-06-22T13:56:41;-0.83;118.99
67186;HTU21D;54116;53.518;49.398;2023-06-22T13:59:07;-0.66;118.99
67186;HTU21D;54116;53.518;49.398;2023-06-22T14:01:36;-0.62;118.99
67186;HTU21D;54116;53.518;49.398;2023-06-22T14:04:02;-0.66;118.99
67186;HTU21D;54116;53.518;49.398;2023-06-22T14:06:28;-0.47;118.99
67186;HTU21D;54116;53.518;49.398;2023-06-22T14:08:56;-0.14;118.99
67186;HTU21D;54116;53.518;49.398;2023-06-22T14:11:22;-0.21;118.99
67186;HTU21D;54116;53.518;49.398;2023-06-22T14:13:48;-0.41;118.99
67186;HTU21D;54116;53.518;49.398;2023-06-22T14:16:14;-0.62;118.99
67186;HTU21D;54116;53.518;49.398;2023-06-22T14:18:40;-0.74;118.99
67186;HTU21D;54116;53.518;49.398;2023-06-22T14:21:07;-0.86;118.99
67186;HTU21D;54116;53.518;49.398;2023-06-22T14:23:33;-0.71;118.99
67186;HTU21D;54116;53.518;49.398;2023-06-22T14:25:59;-0.52;118.99
67186;HTU21D;54116;53.518;49.398;2023-06-22T14:28:26;-0.49;118.99
67186;HTU21D;54116;53.518;49.398;2023-06-22T14:30:52;-0.79;118.99
67186;HTU21D;54116;53.518;49.398;2023-06-22T14:33:18;-1.00;118.99
67186;HTU21D;54116;53.518;49.398;2023-06-22T14:35:44;-1.28;118.99
67186;HTU21D;54116;53.518;49.398;2023-06-22T14:38:11;-1.45;118.99
67186;HTU21D;54116;53.518;49.398;2023-06-22T14:40:37;-1.49;118.99
67186;HTU21D;54116;53.518;49.398;2023-06-22T14:43:03;-1.50;118.99
67186;HTU21D;54116;53.518;49.398;2023-06-22T14:45:29;-1.58;118.99
67186;HTU21D;54116;53.518;49.398;2023-06-22T14:47:55;-1.65;118.99
67186;HTU21D;54116;53.518;49.398;2023-06-22T14:50:21;-1.71;118.99
67186;HTU21D;54116;53.518;49.398;2023-06-22T14:52:47;-1.77;118.99
67186;HTU21D;54116;53.518;49.398;2023-06-22T14:55:13;-1.88;118.99
67186;HTU21D;54116;53.518;49.398;2023-06-22T14:57:39;-1.86;118.99
67186;HTU21D;54116;53.518;49.398;2023-06-22T15:00:06;-2.00;118.99
67186;HTU21D;54116;53.518;49.398;2023-06-22T15:02:32;-2.03;118.99
67186;HTU21D;54116;53.518;49.398;2023-06-22T15:04:58;-2.03;118.99
67186;HTU21D;54116;53.518;49.398;2023-06-22T15:07:25;-2.03;118.99
67186;HTU21D;54116;53.518;49.398;2023-06-22T15:09:51;-2.03;118.99
67186;HTU21D;54116;53.518;49.398;2023-06-22T15:12:17;-1.98;118.99
67186;HTU21D;54116;53.518;49.398;2023-06-22T15:14:43;-2.00;118.99
67186;HTU21D;54116;53.518;49.398;2023-06-22T15:17:10;-2.07;118.99
67186;HTU21D;54116;53.518;49.398;2023-06-22T15:19:36;-2.08;118.99